createdAt,value
2022-09-01T00:01:52.405Z,98591.06
2022-09-01T00:04:40.770Z,98599.06
2022-09-01T00:07:31.632Z,98590.44
2022-09-01T00:10:21.567Z,98588.06
2022-09-01T00:13:10.267Z,98585.97
2022-09-01T00:15:59.224Z,98588.50
2022-09-01T00:18:50.407Z,98579.63
2022-09-01T00:21:41.676Z,98584.78
2022-09-01T00:24:30.351Z,98590.19
2022-09-01T00:27:20.925Z,98583.38
2022-09-01T00:30:16.297Z,98591.16
2022-09-01T00:33:04.821Z,98590.56
2022-09-01T00:35:53.187Z,98589.00
2022-09-01T00:38:41.780Z,98584.69
2022-09-01T00:41:32.942Z,98589.00
2022-09-01T00:44:26.917Z,98580.81
2022-09-01T00:47:19.323Z,98576.28
2022-09-01T00:50:09.817Z,98577.56
2022-09-01T00:52:58.497Z,98581.69
2022-09-01T00:55:46.914Z,98578.53
2022-09-01T00:58:36.698Z,98575.84
2022-09-01T01:01:26.556Z,98588.03
2022-09-01T01:04:15.953Z,98573.53
2022-09-01T01:07:04.679Z,98576.84
2022-09-01T01:09:53.219Z,98591.22
2022-09-01T01:12:43.281Z,98584.69
2022-09-01T01:15:32.253Z,98584.16
2022-09-01T01:18:23.511Z,98583.47
2022-09-01T01:21:36.909Z,98581.88
2022-09-01T01:24:28.587Z,98591.75
2022-09-01T01:27:21.964Z,98588.50
2022-09-01T01:30:13.553Z,98587.13
2022-09-01T01:33:02.224Z,98594.06
2022-09-01T01:35:53.800Z,98588.75
2022-09-01T01:38:44.373Z,98584.97
2022-09-01T01:41:35.622Z,98582.34
2022-09-01T01:44:28.067Z,98585.34
2022-09-01T01:47:20.421Z,98583.41
2022-09-01T01:50:11.004Z,98579.78
2022-09-01T01:53:00.222Z,98577.03
2022-09-01T01:55:49.834Z,98571.69
2022-09-01T01:58:40.777Z,98575.31
2022-09-01T02:01:32.314Z,98573.34
2022-09-01T02:04:21.770Z,98569.16
2022-09-01T02:07:12.420Z,98582.13
2022-09-01T02:10:02.060Z,98587.88
2022-09-01T02:12:50.448Z,98583.97
2022-09-01T02:15:44.465Z,98584.19
2022-09-01T02:18:36.172Z,98588.97
2022-09-01T02:21:27.242Z,98582.63
2022-09-01T02:24:16.205Z,98587.78
2022-09-01T02:27:06.504Z,98582.69
2022-09-01T02:29:56.266Z,98577.13
2022-09-01T02:32:46.166Z,98579.66
2022-09-01T02:35:37.934Z,98593.75
2022-09-01T02:38:29.930Z,98587.69
2022-09-01T02:41:22.190Z,98593.97
2022-09-01T02:44:12.767Z,98588.56
2022-09-01T02:47:01.959Z,98595.56
2022-09-01T02:49:52.613Z,98583.47
2022-09-01T02:52:41.982Z,98584.69
2022-09-01T02:55:30.386Z,98582.63
2022-09-01T02:58:20.439Z,98580.94
2022-09-01T03:01:21.605Z,98583.66
2022-09-01T03:04:12.800Z,98583.00
2022-09-01T03:07:02.540Z,98576.69
2022-09-01T03:09:52.687Z,98566.19
2022-09-01T03:12:41.417Z,98557.50
2022-09-01T03:15:31.081Z,98565.22
2022-09-01T03:18:19.891Z,98570.66
2022-09-01T03:21:10.070Z,98569.16
2022-09-01T03:24:02.229Z,98576.31
2022-09-01T03:26:52.536Z,98577.06
2022-09-01T03:29:41.417Z,98582.22
2022-09-01T03:32:30.379Z,98588.53
2022-09-01T03:35:19.157Z,98588.06
2022-09-01T03:38:07.654Z,98581.91
2022-09-01T03:41:02.130Z,98592.25
2022-09-01T03:43:55.178Z,98585.38
2022-09-01T03:46:44.896Z,98583.94
2022-09-01T03:49:33.572Z,98587.88
2022-09-01T03:52:30.171Z,98587.50
2022-09-01T03:55:23.408Z,98586.97
2022-09-01T03:58:19.090Z,98594.19
2022-09-01T04:01:11.087Z,98594.84
2022-09-01T04:04:02.681Z,98592.63
2022-09-01T04:06:53.176Z,98593.28
2022-09-01T04:09:44.297Z,98595.03
2022-09-01T04:12:33.273Z,98588.69
2022-09-01T04:15:23.082Z,98600.47
2022-09-01T04:18:10.993Z,98596.53
2022-09-01T04:21:00.685Z,98595.03
2022-09-01T04:23:49.438Z,98598.56
2022-09-01T04:26:38.605Z,98598.56
2022-09-01T04:29:28.345Z,98593.00
2022-09-01T04:32:22.137Z,98595.94
2022-09-01T04:35:17.218Z,98597.78
2022-09-01T04:38:08.398Z,98593.44
2022-09-01T04:40:57.550Z,98600.16
2022-09-01T04:43:47.631Z,98593.00
2022-09-01T04:46:38.124Z,98599.38
2022-09-01T04:49:33.862Z,98607.56
2022-09-01T04:52:22.308Z,98610.22
2022-09-01T04:55:17.881Z,98610.19
2022-09-01T04:58:10.077Z,98613.84
2022-09-01T05:01:00.460Z,98603.84
2022-09-01T05:03:56.591Z,98605.13
2022-09-01T05:07:01.108Z,98602.34
2022-09-01T05:10:01.091Z,98602.47
2022-09-01T05:13:23.763Z,98613.84
2022-09-01T05:16:15.864Z,98608.75
2022-09-01T05:19:07.096Z,98601.16
2022-09-01T05:22:00.153Z,98596.97
2022-09-01T05:24:51.569Z,98600.31
2022-09-01T05:27:49.804Z,98600.50
2022-09-01T05:30:42.008Z,98593.44
2022-09-01T05:33:30.594Z,98599.88
2022-09-01T05:36:23.151Z,98603.81
2022-09-01T05:39:14.953Z,98605.50
2022-09-01T05:42:04.836Z,98605.59
2022-09-01T05:44:54.203Z,98604.38
2022-09-01T05:47:43.442Z,98592.28
2022-09-01T05:50:32.626Z,98605.44
2022-09-01T05:53:25.428Z,98603.91
2022-09-01T05:56:16.808Z,98611.75
2022-09-01T06:02:17.991Z,98607.34
2022-09-01T06:05:07.594Z,98603.00
2022-09-01T06:07:57.431Z,98606.22
2022-09-01T06:10:47.147Z,98601.16
2022-09-01T06:13:37.373Z,98612.38
2022-09-01T06:16:27.835Z,98615.94
2022-09-01T06:19:17.036Z,98610.72
2022-09-01T06:22:10.788Z,98621.94
2022-09-01T06:25:02.737Z,98621.84
2022-09-01T06:27:58.683Z,98628.94
2022-09-01T06:30:49.204Z,98628.41
2022-09-01T06:33:39.023Z,98628.28
2022-09-01T06:36:28.152Z,98627.41
2022-09-01T06:39:20.856Z,98627.28
2022-09-01T06:42:15.702Z,98625.78
2022-09-01T06:45:11.566Z,98634.44
2022-09-01T06:48:01.707Z,98631.94
2022-09-01T06:54:00.829Z,98634.31
2022-09-01T06:56:54.056Z,98635.47
2022-09-01T06:59:43.767Z,98640.38
2022-09-01T07:02:36.020Z,98644.72
2022-09-01T07:06:09.650Z,98652.50
2022-09-01T07:09:20.594Z,98651.13
2022-09-01T07:19:13.397Z,98654.56
2022-09-01T07:22:35.261Z,98646.13
2022-09-01T07:25:20.582Z,98649.88
2022-09-01T07:28:17.487Z,98651.72
2022-09-01T07:44:13.844Z,98648.94
2022-09-01T07:47:52.411Z,98661.03
2022-09-01T07:53:40.173Z,98647.41
2022-09-01T07:56:37.541Z,98647.88
2022-09-01T07:59:30.101Z,98639.06
2022-09-01T08:02:25.654Z,98633.38
2022-09-01T08:05:18.025Z,98639.19
2022-09-01T08:08:18.657Z,98643.88
2022-09-01T08:11:10.176Z,98639.16
2022-09-01T08:14:00.182Z,98638.91
2022-09-01T08:16:53.021Z,98635.06
2022-09-01T08:19:44.024Z,98633.38
2022-09-01T08:22:35.489Z,98640.69
2022-09-01T08:25:36.213Z,98629.91
2022-09-01T08:28:27.071Z,98640.44
2022-09-01T08:31:20.123Z,98637.88
2022-09-01T08:34:12.953Z,98642.88
2022-09-01T08:37:02.027Z,98640.28
2022-09-01T08:39:50.783Z,98638.47
2022-09-01T08:42:49.320Z,98635.28
2022-09-01T08:45:47.007Z,98639.25
2022-09-01T08:51:55.236Z,98630.13
2022-09-01T08:54:47.652Z,98630.25
2022-09-01T08:57:39.636Z,98613.34
2022-09-01T09:00:54.862Z,98618.22
2022-09-01T09:03:50.120Z,98631.06
2022-09-01T09:06:49.012Z,98630.47
2022-09-01T09:09:49.321Z,98629.94
2022-09-01T09:12:56.711Z,98623.53
2022-09-01T09:16:06.987Z,98628.34
2022-09-01T09:19:02.253Z,98635.63
2022-09-01T09:21:52.279Z,98629.13
2022-09-01T09:24:50.449Z,98618.28
2022-09-01T09:27:42.369Z,98617.84
2022-09-01T09:30:32.606Z,98614.13
2022-09-01T09:33:51.101Z,98603.34
2022-09-01T09:36:41.805Z,98623.38
2022-09-01T09:39:30.438Z,98618.31
2022-09-01T09:42:19.621Z,98596.16
2022-09-01T09:45:22.691Z,98610.97
2022-09-01T09:48:28.902Z,98626.13
2022-09-01T09:51:22.679Z,98617.72
2022-09-01T09:54:17.226Z,98633.13
2022-09-01T09:57:13.517Z,98622.41
2022-09-01T10:00:07.950Z,98604.09
2022-09-01T10:03:08.647Z,98611.38
2022-09-01T10:06:12.274Z,98609.97
2022-09-01T10:09:05.543Z,98613.94
2022-09-01T10:11:58.078Z,98615.56
2022-09-01T10:14:53.449Z,98596.31
2022-09-01T10:17:44.403Z,98609.56
2022-09-01T10:20:34.665Z,98612.09
2022-09-01T10:23:27.380Z,98610.31
2022-09-01T10:26:26.232Z,98606.31
2022-09-01T10:29:18.962Z,98607.47
2022-09-01T10:32:31.533Z,98608.25
2022-09-01T10:35:24.569Z,98598.03
2022-09-01T10:38:18.611Z,98590.91
2022-09-01T10:41:15.859Z,98589.56
2022-09-01T10:44:12.278Z,98602.78
2022-09-01T10:47:16.487Z,98598.44
2022-09-01T10:50:23.693Z,98594.00
2022-09-01T10:53:17.297Z,98585.38
2022-09-01T10:56:23.437Z,98594.81
2022-09-01T10:59:31.828Z,98589.63
2022-09-01T11:02:23.622Z,98597.22
2022-09-01T11:05:19.398Z,98614.31
2022-09-01T11:08:26.161Z,98595.97
2022-09-01T11:11:31.294Z,98603.84
2022-09-01T11:14:23.739Z,98584.69
2022-09-01T11:17:15.533Z,98596.75
2022-09-01T11:20:08.966Z,98592.63
2022-09-01T11:23:04.227Z,98595.66
2022-09-01T11:29:02.677Z,98589.72
2022-09-01T11:31:53.428Z,98584.66
2022-09-01T11:34:43.834Z,98576.91
2022-09-01T11:37:34.297Z,98584.00
2022-09-01T11:40:25.623Z,98580.47
2022-09-01T11:43:19.412Z,98577.81
2022-09-01T11:46:18.276Z,98578.13
2022-09-01T11:49:10.294Z,98572.88
2022-09-01T11:52:00.507Z,98578.31
2022-09-01T11:54:50.002Z,98580.16
2022-09-01T11:57:40.555Z,98572.13
2022-09-01T12:00:32.538Z,98571.22
2022-09-01T12:03:23.691Z,98564.56
2022-09-01T12:06:21.916Z,98570.53
2022-09-01T12:09:10.425Z,98578.41
2022-09-01T12:11:59.298Z,98586.53
2022-09-01T12:15:05.713Z,98568.78
2022-09-01T12:17:55.266Z,98563.63
2022-09-01T12:20:43.830Z,98557.19
2022-09-01T12:23:36.242Z,98555.28
2022-09-01T12:26:27.752Z,98555.91
2022-09-01T12:29:18.407Z,98560.47
2022-09-01T12:32:07.237Z,98555.69
2022-09-01T12:35:05.637Z,98553.31
2022-09-01T12:38:30.139Z,98556.94
2022-09-01T12:41:32.498Z,98550.13
2022-09-01T12:44:34.501Z,98542.47
2022-09-01T12:47:50.373Z,98542.16
2022-09-01T12:50:48.194Z,98551.97
2022-09-01T12:53:37.114Z,98553.63
2022-09-01T12:56:32.055Z,98546.16
2022-09-01T12:59:36.255Z,98552.25
2022-09-01T13:02:34.954Z,98550.16
2022-09-01T13:05:33.608Z,98545.00
2022-09-01T13:08:28.446Z,98546.84
2022-09-01T13:11:20.190Z,98512.72
2022-09-01T13:14:10.802Z,98563.34
2022-09-01T13:16:59.262Z,98564.16
2022-09-01T13:19:47.613Z,98551.94
2022-09-01T13:22:36.281Z,98561.03
2022-09-01T13:25:25.211Z,98552.78
2022-09-01T13:28:14.892Z,98563.78
2022-09-01T13:34:22.502Z,98543.53
2022-09-01T13:37:12.029Z,98551.94
2022-09-01T13:40:01.681Z,98555.91
2022-09-01T13:42:52.675Z,98561.28
2022-09-01T13:45:42.041Z,98545.34
2022-09-01T13:51:42.609Z,98526.19
2022-09-01T13:54:30.989Z,98549.19
2022-09-01T13:57:19.426Z,98556.31
2022-09-01T14:00:11.231Z,98547.28
2022-09-01T14:03:03.378Z,98534.31
2022-09-01T14:05:53.141Z,98555.16
2022-09-01T14:08:41.659Z,98531.81
2022-09-01T14:11:30.930Z,98547.13
2022-09-01T14:14:19.328Z,98551.22
2022-09-01T14:17:07.861Z,98547.66
2022-09-01T14:19:57.471Z,98548.41
2022-09-01T14:22:48.059Z,98540.16
2022-09-01T14:25:37.792Z,98545.19
2022-09-01T14:28:26.348Z,98537.88
2022-09-01T14:31:16.510Z,98517.53
2022-09-01T14:34:05.179Z,98533.81
2022-09-01T14:36:57.881Z,98522.06
2022-09-01T14:39:51.800Z,98531.59
2022-09-01T14:42:40.156Z,98542.13
2022-09-01T14:45:29.811Z,98534.56
2022-09-01T14:48:20.748Z,98531.22
2022-09-01T14:51:10.646Z,98534.88
2022-09-01T14:53:59.183Z,98533.38
2022-09-01T14:59:58.468Z,98545.75
2022-09-01T15:02:47.096Z,98511.56
2022-09-01T15:05:39.503Z,98527.22
2022-09-01T15:08:28.595Z,98542.72
2022-09-01T15:11:21.361Z,98540.06
2022-09-01T15:14:11.507Z,98541.44
2022-09-01T15:16:59.944Z,98536.06
2022-09-01T15:19:48.326Z,98543.75
2022-09-01T15:22:36.702Z,98544.34
2022-09-01T15:25:25.299Z,98537.13
2022-09-01T15:28:14.065Z,98548.88
2022-09-01T15:31:03.918Z,98538.84
2022-09-01T15:33:52.666Z,98533.22
2022-09-01T15:36:42.428Z,98537.41
2022-09-01T15:39:37.557Z,98556.78
2022-09-01T15:42:26.874Z,98546.34
2022-09-01T15:45:19.006Z,98534.19
2022-09-01T15:48:09.053Z,98536.09
2022-09-01T15:51:17.751Z,98535.56
2022-09-01T15:54:11.395Z,98543.28
2022-09-01T15:56:59.762Z,98548.66
2022-09-01T15:59:48.195Z,98548.84
2022-09-01T16:02:37.272Z,98547.41
2022-09-01T16:05:27.476Z,98548.81
2022-09-01T16:08:15.928Z,98544.94
2022-09-01T16:11:09.834Z,98550.25
2022-09-01T16:13:58.733Z,98555.22
2022-09-01T16:16:57.712Z,98558.69
2022-09-01T16:19:54.982Z,98560.41
2022-09-01T16:22:49.583Z,98567.25
2022-09-01T16:25:37.955Z,98561.47
2022-09-01T16:28:29.835Z,98573.94
2022-09-01T16:31:24.010Z,98559.16
2022-09-01T16:34:18.348Z,98566.72
2022-09-01T16:37:15.177Z,98562.84
2022-09-01T16:40:19.004Z,98568.31
2022-09-01T16:43:16.509Z,98573.28
2022-09-01T16:46:10.353Z,98566.34
2022-09-01T16:49:09.505Z,98571.03
2022-09-01T16:52:05.603Z,98571.41
2022-09-01T16:55:15.512Z,98572.00
2022-09-01T16:58:18.753Z,98582.22
2022-09-01T17:01:36.721Z,98583.63
2022-09-01T17:04:32.819Z,98598.69
2022-09-01T17:07:30.092Z,98586.06
2022-09-01T17:10:31.393Z,98578.72
2022-09-01T17:13:28.397Z,98587.88
2022-09-01T17:16:22.853Z,98589.91
2022-09-01T17:19:17.650Z,98593.84
2022-09-01T17:22:09.034Z,98597.63
2022-09-01T17:28:02.086Z,98597.16
2022-09-01T17:31:00.484Z,98592.56
2022-09-01T17:34:01.991Z,98598.44
2022-09-01T17:37:02.092Z,98595.91
2022-09-01T17:40:00.916Z,98599.59
2022-09-01T17:43:00.254Z,98605.94
2022-09-01T17:45:55.466Z,98608.88
2022-09-01T17:48:51.920Z,98611.66
2022-09-01T17:51:46.087Z,98618.72
2022-09-01T17:54:41.427Z,98616.31
2022-09-01T17:57:38.731Z,98612.94
2022-09-01T18:00:34.205Z,98615.75
2022-09-01T18:03:44.852Z,98608.38
2022-09-01T18:06:37.778Z,98608.03
2022-09-01T18:09:30.066Z,98622.28
2022-09-01T18:12:22.910Z,98627.50
2022-09-01T18:15:13.672Z,98635.69
2022-09-01T18:18:07.475Z,98640.03
2022-09-01T18:21:01.907Z,98645.22
2022-09-01T18:23:55.638Z,98639.94
2022-09-01T18:26:47.531Z,98644.78
2022-09-01T18:29:36.147Z,98651.13
2022-09-01T18:32:39.716Z,98650.88
2022-09-01T18:35:40.032Z,98658.75
2022-09-01T18:38:38.731Z,98651.72
2022-09-01T18:41:38.664Z,98651.22
2022-09-01T18:44:42.743Z,98656.25
2022-09-01T18:47:33.902Z,98652.97
2022-09-01T18:50:27.222Z,98644.63
2022-09-01T18:53:30.142Z,98653.25
2022-09-01T18:56:32.297Z,98651.47
2022-09-01T18:59:46.644Z,98658.06
2022-09-01T19:02:49.742Z,98653.00
2022-09-01T19:05:55.817Z,98664.66
2022-09-01T19:08:54.264Z,98668.19
2022-09-01T19:11:56.321Z,98674.50
2022-09-01T19:14:55.477Z,98680.84
2022-09-01T19:18:02.576Z,98674.75
2022-09-01T19:20:56.318Z,98672.22
2022-09-01T19:23:51.497Z,98676.03
2022-09-01T19:26:43.520Z,98680.56
2022-09-01T19:29:41.951Z,98673.44
2022-09-01T19:32:32.555Z,98682.59
2022-09-01T19:35:21.533Z,98673.94
2022-09-01T19:38:14.289Z,98681.56
2022-09-01T19:41:11.356Z,98675.72
2022-09-01T19:44:08.323Z,98685.34
2022-09-01T19:47:04.381Z,98679.25
2022-09-01T19:50:00.154Z,98685.06
2022-09-01T19:52:55.643Z,98680.25
2022-09-01T19:55:50.495Z,98667.06
2022-09-01T19:58:47.417Z,98671.34
2022-09-01T20:01:44.596Z,98673.66
2022-09-01T20:04:42.974Z,98680.25
2022-09-01T20:07:37.870Z,98685.53
2022-09-01T20:10:51.650Z,98676.16
2022-09-01T20:14:08.493Z,98691.53
2022-09-01T20:17:01.036Z,98689.56
2022-09-01T20:19:56.738Z,98683.00
2022-09-01T20:22:53.433Z,98692.56
2022-09-01T20:25:47.517Z,98697.38
2022-09-01T20:28:45.731Z,98682.44
2022-09-01T20:31:38.619Z,98685.28
2022-09-01T20:34:34.134Z,98694.81
2022-09-01T20:37:31.252Z,98694.53
2022-09-01T20:40:27.195Z,98691.25
2022-09-01T20:43:20.326Z,98694.94
2022-09-01T20:46:08.819Z,98703.84
2022-09-01T20:48:58.578Z,98713.09
2022-09-01T20:51:55.779Z,98709.88
2022-09-01T20:54:54.202Z,98704.22
2022-09-01T20:57:51.547Z,98712.53
2022-09-01T21:00:49.853Z,98704.22
2022-09-01T21:03:45.465Z,98708.84
2022-09-01T21:06:48.796Z,98704.50
2022-09-01T21:09:52.251Z,98710.88
2022-09-01T21:12:49.401Z,98717.69
2022-09-01T21:15:45.428Z,98709.81
2022-09-01T21:18:46.747Z,98712.13
2022-09-01T21:21:44.890Z,98713.72
2022-09-01T21:24:34.033Z,98717.31
2022-09-01T21:27:27.399Z,98719.56
2022-09-01T21:30:17.080Z,98719.03
2022-09-01T21:33:06.304Z,98720.47
2022-09-01T21:35:54.945Z,98712.13
2022-09-01T21:38:43.409Z,98716.59
2022-09-01T21:41:31.852Z,98712.06
2022-09-01T21:44:22.477Z,98715.59
2022-09-01T21:47:10.890Z,98710.09
2022-09-01T21:49:59.372Z,98711.94
2022-09-01T21:52:48.377Z,98707.13
2022-09-01T21:55:37.742Z,98717.44
2022-09-01T21:58:26.497Z,98722.47
2022-09-01T22:01:16.397Z,98716.69
2022-09-01T22:04:05.418Z,98720.94
2022-09-01T22:06:53.874Z,98714.09
2022-09-01T22:09:43.205Z,98710.84
2022-09-01T22:12:31.527Z,98714.69
2022-09-01T22:15:22.815Z,98714.31
2022-09-01T22:18:13.084Z,98724.97
2022-09-01T22:21:05.381Z,98713.88
2022-09-01T22:23:53.720Z,98703.50
2022-09-01T22:26:43.137Z,98706.56
2022-09-01T22:29:31.604Z,98713.63
2022-09-01T22:32:23.166Z,98714.97
2022-09-01T22:35:14.208Z,98716.47
2022-09-01T22:38:02.698Z,98719.63
2022-09-01T22:40:56.050Z,98709.84
2022-09-01T22:43:44.427Z,98708.81
2022-09-01T22:46:34.554Z,98714.84
2022-09-01T22:49:22.825Z,98708.72
2022-09-01T22:52:12.558Z,98716.09
2022-09-01T22:55:03.371Z,98698.69
2022-09-01T22:57:51.733Z,98712.63
2022-09-01T23:00:45.082Z,98705.78
2022-09-01T23:03:33.531Z,98708.69
2022-09-01T23:06:28.060Z,98713.31
2022-09-01T23:09:18.862Z,98700.34
2022-09-01T23:12:07.843Z,98698.06
2022-09-01T23:14:56.248Z,98702.31
2022-09-01T23:17:44.721Z,98703.50
2022-09-01T23:20:33.117Z,98699.16
2022-09-01T23:23:21.780Z,98704.94
2022-09-01T23:26:13.461Z,98704.41
2022-09-01T23:29:02.461Z,98704.69
2022-09-01T23:31:50.975Z,98710.31
2022-09-01T23:34:39.773Z,98709.63
2022-09-01T23:37:29.085Z,98704.63
2022-09-01T23:40:18.285Z,98710.19
2022-09-01T23:43:07.985Z,98709.63
2022-09-01T23:45:57.686Z,98706.47
2022-09-01T23:48:46.249Z,98706.34
2022-09-01T23:51:34.803Z,98699.34
2022-09-01T23:54:23.316Z,98698.59
2022-09-01T23:57:12.843Z,98698.94
